AirNav   SIMCOM
 
 1694 users online  

7FL3 Adams Ranch Airport
Fort Pierce, Florida, USA

GOING TO FORT PIERCE?


FAA INFORMATION EFFECTIVE 20 JULY 2017

Location

FAA Identifier: 7FL3
Lat/Long: 27-26-31.1420N / 080-35-03.2010W
27-26.519033N / 080-35.053350W
27.4419839 / -80.5842225
(estimated)
Elevation: 25 ft. / 8 m (estimated)
Variation: 03W (1985)
From city: 14 miles W of FORT PIERCE, FL
Time zone: UTC -4 (UTC -5 during Standard Time)
Zip code: 34945

Airport Operations

Airport use: Private use. Permission required prior to landing
Activation date: 08/1991
Control tower: no
ARTCC: MIAMI CENTER
FSS: MIAMI FLIGHT SERVICE STATION
Attendance: UNATNDD
Wind indicator: yes
Segmented circle: no

Airport Communications

WX ASOS at FPR (12 nm E): PHONE 772-489-4281
WX ASOS at VRB (16 nm NE): PHONE 772-978-9535
WX AWOS-3 at OBE (18 nm SW): 118.675 (863-467-1148)

Nearby radio navigation aids

VOR radial/distance  VOR name  Freq  Var
TRVr207/15.0TREASURE VORTAC117.3007W
MLBr183/39.9MELBOURNE VOR/DME110.0007W
PHKr008/40.0PAHOKEE VOR/DME115.4000E

 
NDB name  Hdg/Dist  Freq  Var  ID
REYNOLDS248/6.733807WRYD .-. -.-- -..
FORT PIERCE264/11.527507WFPR ..-. .--. .-.
UNITED340/34.640503WUTX ..- - -..-
SATELLITE177/39.925706WSQT ... --.- -

Airport Services

Runway Information

Runway 8/26

Dimensions: 2625 x 135 ft. / 800 x 41 m
Surface: turf, in good condition
Runway edge markings: 08/26 THRS ARE MKD WITH THR MARKERS; EDGES NOT MKD.
RUNWAY 8  RUNWAY 26
Traffic pattern: leftleft
Displaced threshold: 200 ft.150 ft.

Airport Ownership and Management from official FAA records

Ownership: Privately-owned
Owner: ADAMS RANCH INC.
PO BOX 12909
FT PIERCE, FL 34979-2909
Phone 407-461-6321
Manager: MICHAEL ADAMS
PO BOX 12909
FT PIERCE, FL 34979-2909
Phone 407-461-6321

Airport Operational Statistics

Aircraft based on the field: 4
Single engine airplanes: 3
Ultralights: 1
    

Additional Remarks

ULTRALIGHT ACTIVITY ON AND INVOF ARPT.

Instrument Procedures

There are no published instrument procedures at 7FL3.

Some nearby airports with instrument procedures:

KFPR - Treasure Coast International Airport (12 nm E)
KVRB - Vero Beach Municipal Airport (16 nm NE)
KOBE - Okeechobee County Airport (18 nm SW)
X26 - Sebastian Municipal Airport (23 nm N)
KSUA - Witham Field Airport (25 nm SE)
 
Loc | Ops | Rwys | IFR | FBO | Links
Com | Nav | Svcs | Stats | Notes

Reliance Aviation
AirBoss

 
Area around 7FL3 (Adams Ranch Airport)
 
Road maps at: MapQuest Bing Google
 
Aerial photo
No photo
 
Sectional chart

 
Airport distance calculator
Flying to Adams Ranch Airport? Find the distance to fly.

From to 7FL3

Sunrise and sunset
Times for 24-Jul-2017
 Local
(UTC-4)
 Zulu
(UTC)
Morning civil twilight06:1710:17
Sunrise06:4310:43
Sunset20:1500:15
Evening civil twilight20:4100:41

Current date and time
Zulu (UTC)  24-Jul-2017 18:17:46
Local (UTC-4)  24-Jul-2017 14:17:46
 
METAR
KFPR 
11nm E 
241753Z 06004KT 10SM BKN045 OVC050 32/26 A3008 RMK AO2 SLP184 T03220256 10339 20256 58008
KVRB 
15nm NE 
241753Z 11004KT 10SM BKN036 32/24 A3008 RMK AO2 SLP184 60007 T03220239 10328 20261 58009
KOBE 
18nm SW 
241755Z AUTO 14006KT 10SM SCT040 33/23 A3009 RMK AO2
TAF
KFPR 
11nm E 
241720Z 2418/2518 22008KT P6SM VCTS SCT040CB BKN120 TEMPO 2418/2421 3SM TSRA BKN025CB FM250000 18005KT P6SM FEW020 BKN250 FM250600 VRB05KT P6SM BKN250
KVRB 
15nm NE 
241720Z 2418/2518 24008KT P6SM VCTS SCT040CB BKN120 TEMPO 2418/2421 3SM TSRA BKN025CB FM250000 18005KT P6SM FEW020 BKN250 FM250600 VRB05KT P6SM BKN250
NOTAMs
Click for the latest NOTAMs
NOTAMs are issued by the DoD/FAA and will open in a separate window not controlled by AirNav.

 

 
 

Would you like to see your business listed on this page?

 If your business provides an interesting product or service to pilots, flight crews, aircraft, or users of the Adams Ranch Airport, you should consider listing it here.  To start the listing process, click on the button below
 
Add a business
 

Other Pages about Adams Ranch Airport

Update a link
 
Copyright © AirNav, LLC. All rights reserved. Privacy Policy  Contact